sensor_id;sensor_type;location;lat;lon;timestamp;pressure;altitude;pressure_sealevel;temperature;humidity
47710;BME280;33473;51.640;5.892;2023-08-30T00:10:16;100700;;;20.2;52.0
47710;BME280;33473;51.640;5.892;2023-08-30T00:23:38;100700;;;20.0;52.0
47710;BME280;33473;51.640;5.892;2023-08-30T00:36:57;100700;;;19.7;52.0
47710;BME280;33473;51.640;5.892;2023-08-30T00:50:17;100700;;;19.5;52.0
47710;BME280;33473;51.640;5.892;2023-08-30T01:03:37;100700;;;19.3;51.0
47710;BME280;33473;51.640;5.892;2023-08-30T01:16:58;100700;;;19.0;51.0
47710;BME280;33473;51.640;5.892;2023-08-30T01:30:18;100700;;;18.9;52.0
47710;BME280;33473;51.640;5.892;2023-08-30T01:43:38;100700;;;18.7;53.0
47710;BME280;33473;51.640;5.892;2023-08-30T01:56:59;100700;;;18.7;54.0
47710;BME280;33473;51.640;5.892;2023-08-30T02:10:19;100700;;;18.8;54.0
47710;BME280;33473;51.640;5.892;2023-08-30T02:23:38;100700;;;18.9;55.0
47710;BME280;33473;51.640;5.892;2023-08-30T02:36:58;100700;;;18.9;54.0
47710;BME280;33473;51.640;5.892;2023-08-30T02:50:18;100700;;;18.7;53.0
47710;BME280;33473;51.640;5.892;2023-08-30T03:03:39;100600;;;18.6;53.0
47710;BME280;33473;51.640;5.892;2023-08-30T03:16:59;100600;;;18.5;53.0
47710;BME280;33473;51.640;5.892;2023-08-30T03:30:20;100600;;;18.5;54.0
47710;BME280;33473;51.640;5.892;2023-08-30T03:43:40;100600;;;18.6;55.0
47710;BME280;33473;51.640;5.892;2023-08-30T03:57:00;100600;;;18.8;55.0
47710;BME280;33473;51.640;5.892;2023-08-30T04:10:20;100600;;;18.8;55.0
47710;BME280;33473;51.640;5.892;2023-08-30T04:23:41;100500;;;18.8;54.0
47710;BME280;33473;51.640;5.892;2023-08-30T04:37:01;100500;;;18.7;54.0
47710;BME280;33473;51.640;5.892;2023-08-30T04:50:20;100500;;;18.6;54.0
47710;BME280;33473;51.640;5.892;2023-08-30T05:03:40;100500;;;18.6;54.0
47710;BME280;33473;51.640;5.892;2023-08-30T05:17:01;100500;;;18.7;55.0
47710;BME280;33473;51.640;5.892;2023-08-30T05:30:23;100500;;;19.0;56.0
47710;BME280;33473;51.640;5.892;2023-08-30T05:43:44;100500;;;19.5;57.0
47710;BME280;33473;51.640;5.892;2023-08-30T05:57:04;100500;;;19.9;56.0
47710;BME280;33473;51.640;5.892;2023-08-30T06:10:25;100500;;;20.2;56.0
47710;BME280;33473;51.640;5.892;2023-08-30T06:23:47;100500;;;20.6;56.0
47710;BME280;33473;51.640;5.892;2023-08-30T06:37:08;100500;;;20.9;56.0
47710;BME280;33473;51.640;5.892;2023-08-30T06:50:28;100400;;;21.1;55.0
47710;BME280;33473;51.640;5.892;2023-08-30T07:03:49;100400;;;21.4;55.0
47710;BME280;33473;51.640;5.892;2023-08-30T07:17:09;100500;;;21.6;55.0
47710;BME280;33473;51.640;5.892;2023-08-30T07:30:29;100500;;;21.7;54.0
47710;BME280;33473;51.640;5.892;2023-08-30T07:43:50;100500;;;21.6;54.0
47710;BME280;33473;51.640;5.892;2023-08-30T07:57:12;100400;;;21.4;54.0
47710;BME280;33473;51.640;5.892;2023-08-30T08:10:33;100400;;;21.3;55.0
47710;BME280;33473;51.640;5.892;2023-08-30T08:23:55;100400;;;21.2;56.0
47710;BME280;33473;51.640;5.892;2023-08-30T08:37:14;100400;;;21.2;56.0
47710;BME280;33473;51.640;5.892;2023-08-30T08:50:34;100400;;;21.3;57.0
47710;BME280;33473;51.640;5.892;2023-08-30T09:03:55;100400;;;21.2;57.0
47710;BME280;33473;51.640;5.892;2023-08-30T09:17:15;100400;;;21.4;57.0
47710;BME280;33473;51.640;5.892;2023-08-30T09:30:36;100400;;;21.4;57.0
47710;BME280;33473;51.640;5.892;2023-08-30T09:43:56;100400;;;21.5;57.0
47710;BME280;33473;51.640;5.892;2023-08-30T09:57:18;100400;;;21.6;58.0
47710;BME280;33473;51.640;5.892;2023-08-30T10:10:37;100400;;;21.9;58.0
47710;BME280;33473;51.640;5.892;2023-08-30T10:23:59;100400;;;22.0;58.0
47710;BME280;33473;51.640;5.892;2023-08-30T10:37:20;100400;;;22.3;58.0
47710;BME280;33473;51.640;5.892;2023-08-30T10:50:41;100400;;;22.8;59.0
47710;BME280;33473;51.640;5.892;2023-08-30T11:04:03;100400;;;23.3;58.0
47710;BME280;33473;51.640;5.892;2023-08-30T11:17:23;100300;;;23.8;58.0
47710;BME280;33473;51.640;5.892;2023-08-30T11:30:44;100300;;;24.4;58.0
47710;BME280;33473;51.640;5.892;2023-08-30T11:44:04;100300;;;24.8;57.0
47710;BME280;33473;51.640;5.892;2023-08-30T11:57:23;100300;;;23.8;53.0
47710;BME280;33473;51.640;5.892;2023-08-30T12:10:45;100300;;;23.7;52.0
47710;BME280;33473;51.640;5.892;2023-08-30T12:24:06;100300;;;23.9;52.0
47710;BME280;33473;51.640;5.892;2023-08-30T12:37:27;100300;;;24.6;50.0
47710;BME280;33473;51.640;5.892;2023-08-30T12:50:47;100300;;;24.5;50.0
47710;BME280;33473;51.640;5.892;2023-08-30T13:04:07;100400;;;24.7;45.0
47710;BME280;33473;51.640;5.892;2023-08-30T13:17:27;100400;;;25.2;43.0
47710;BME280;33473;51.640;5.892;2023-08-30T13:30:48;100400;;;25.0;44.0
47710;BME280;33473;51.640;5.892;2023-08-30T13:44:08;100400;;;25.1;43.0
47710;BME280;33473;51.640;5.892;2023-08-30T13:57:27;100300;;;25.5;43.0
47710;BME280;33473;51.640;5.892;2023-08-30T14:10:47;100300;;;25.1;40.0
47710;BME280;33473;51.640;5.892;2023-08-30T14:24:07;100300;;;25.6;39.0
47710;BME280;33473;51.640;5.892;2023-08-30T14:37:27;100300;;;25.3;37.0
47710;BME280;33473;51.640;5.892;2023-08-30T14:50:46;100400;;;25.2;35.0
47710;BME280;33473;51.640;5.892;2023-08-30T15:04:06;100400;;;25.5;37.0
47710;BME280;33473;51.640;5.892;2023-08-30T15:17:26;100400;;;24.8;39.0
47710;BME280;33473;51.640;5.892;2023-08-30T15:30:45;100400;;;24.6;40.0
47710;BME280;33473;51.640;5.892;2023-08-30T15:44:07;100400;;;24.5;40.0
47710;BME280;33473;51.640;5.892;2023-08-30T15:57:26;100400;;;24.6;41.0
47710;BME280;33473;51.640;5.892;2023-08-30T16:10:46;100400;;;24.2;43.0
47710;BME280;33473;51.640;5.892;2023-08-30T16:24:06;100400;;;23.2;42.0
47710;BME280;33473;51.640;5.892;2023-08-30T16:37:25;100500;;;23.7;42.0
47710;BME280;33473;51.640;5.892;2023-08-30T16:50:45;100500;;;23.6;41.0
47710;BME280;33473;51.640;5.892;2023-08-30T17:04:06;100500;;;23.6;41.0
47710;BME280;33473;51.640;5.892;2023-08-30T17:17:28;100500;;;23.5;42.0
47710;BME280;33473;51.640;5.892;2023-08-30T17:30:47;100500;;;23.2;42.0
47710;BME280;33473;51.640;5.892;2023-08-30T17:44:07;100500;;;23.1;43.0
47710;BME280;33473;51.640;5.892;2023-08-30T17:57:28;100500;;;22.9;44.0
47710;BME280;33473;51.640;5.892;2023-08-30T18:10:50;100500;;;22.5;45.0
47710;BME280;33473;51.640;5.892;2023-08-30T18:24:09;100500;;;22.1;47.0
47710;BME280;33473;51.640;5.892;2023-08-30T18:37:29;100500;;;21.7;48.0
47710;BME280;33473;51.640;5.892;2023-08-30T18:50:49;100600;;;21.4;48.0
47710;BME280;33473;51.640;5.892;2023-08-30T19:04:09;100600;;;21.1;49.0
47710;BME280;33473;51.640;5.892;2023-08-30T19:17:28;100600;;;20.8;50.0
47710;BME280;33473;51.640;5.892;2023-08-30T19:30:48;100600;;;20.6;50.0
47710;BME280;33473;51.640;5.892;2023-08-30T19:44:08;100600;;;20.4;51.0
47710;BME280;33473;51.640;5.892;2023-08-30T19:57:29;100600;;;20.3;51.0
47710;BME280;33473;51.640;5.892;2023-08-30T20:10:50;100600;;;20.3;51.0
47710;BME280;33473;51.640;5.892;2023-08-30T20:24:12;100600;;;20.3;51.0
47710;BME280;33473;51.640;5.892;2023-08-30T20:37:33;100600;;;20.3;51.0
47710;BME280;33473;51.640;5.892;2023-08-30T20:50:53;100600;;;20.3;51.0
47710;BME280;33473;51.640;5.892;2023-08-30T21:04:13;100600;;;20.3;51.0
47710;BME280;33473;51.640;5.892;2023-08-30T21:17:34;100600;;;20.3;50.0
47710;BME280;33473;51.640;5.892;2023-08-30T21:30:56;100600;;;20.2;50.0
47710;BME280;33473;51.640;5.892;2023-08-30T21:44:15;100600;;;20.0;50.0
47710;BME280;33473;51.640;5.892;2023-08-30T21:57:35;100700;;;19.7;51.0
47710;BME280;33473;51.640;5.892;2023-08-30T22:10:55;100700;;;19.5;51.0
47710;BME280;33473;51.640;5.892;2023-08-30T22:24:16;100700;;;19.4;52.0
47710;BME280;33473;51.640;5.892;2023-08-30T22:37:36;100700;;;19.2;52.0
47710;BME280;33473;51.640;5.892;2023-08-30T22:50:56;100700;;;19.1;52.0
47710;BME280;33473;51.640;5.892;2023-08-30T23:04:15;100700;;;18.9;52.0
47710;BME280;33473;51.640;5.892;2023-08-30T23:17:35;100700;;;18.8;52.0
47710;BME280;33473;51.640;5.892;2023-08-30T23:30:55;100700;;;18.7;52.0
47710;BME280;33473;51.640;5.892;2023-08-30T23:44:16;100700;;;18.5;52.0
47710;BME280;33473;51.640;5.892;2023-08-30T23:57:37;100700;;;18.5;53.0
